Mc Connell Air Force Base
KIAB : now visible

Airfield :











YOU CAN JOIN US ON...

 
LOGIN :

Register | Disclaimer

   EN    FR    IT 

 









Legend :    VFR   Marginal VFR   IFR   Intensive IFR   Very Intensive IFR
Visi :
Ceiling :
>= 8 km
>= 3000ft
5 to 8 km
1000 to 3000 ft
1500m to 5 km
500 to 1000 ft
800 to 1500m
200 to 500 ft
< 800m
< 200 ft
Symbols :   Thunderstorms  Fog  Heavy snow  Heavy precipitations  Wind > 20 kt






- Airport Elevation : 1371 ft
- IATA code : IAB


KIAB - Mc Connell Air Force Base

CURRENT METAR :
  • 251856Z AUTO 02012KT 10SM OVC009 03/00 A3014 RMK AO2 SLP217 T00340003

EXPIRED METARs :
  • 251756Z AUTO 02013KT 10SM OVC008 04/00 A3016 RMK AO2 SLP224 T00360003 10038 20031 55000
  • 251656Z AUTO 03012KT 10SM OVC008 04/00 A3015 RMK AO2 SLP221 T00370002

TAF AMD TAF KIAB
Valid from the 25 at 15:00 until the 26 at 15:00 UTC


251519Z 2515/2615 05009KT 9999 SCT010 OVC020 620202 QNH3006INS
TEMPO 2515/2518 BKN007 OVC010
BECMG 2520/2521 01012G18KT 8000 -SHRA BKN015 QNH3008INS
BECMG 2602/2603 01015G20KT 8000 -FZDZ BKN006 660001 650066 520803 QNH3018INS
BECMG 2605/2606 01020G25KT 8000 -FZRA OVC006 690001 650066 520433 QNH3027INS TX04/2519Z TNM01/2607Z LAST NO AMDS AFT 2509 NEXT 2610
KZKC FIR / North America



MET'MAP, your aeronautical weather chart ! - Copyright ORBIFLY December 2007 - Disclaimer

ORBIFLY MET'MAP TEAM :

Programming & Development : Alexandra Zaïnal
Concept & original design : Baudouin d'Aumeries
Assistance for programming : Marc-Olivier Méhu
Technical & hardware support : Manuel Goepfert

Contact : metmap@orbifly.com




SOURCES & CREDITS :

   NOAA       Earth
Advisory